createdAt,value
2022-12-16T00:00:00.651Z,-1.40
2022-12-16T00:01:09.265Z,-1.37
2022-12-16T00:02:11.462Z,-1.35
2022-12-16T00:03:14.686Z,-1.33
2022-12-16T00:04:17.732Z,-1.31
2022-12-16T00:05:21.421Z,-1.30
2022-12-16T00:06:25.655Z,-1.31
2022-12-16T00:07:29.558Z,-1.28
2022-12-16T00:08:37.273Z,-1.27
2022-12-16T00:09:39.544Z,-1.27
2022-12-16T00:10:54.849Z,-1.27
2022-12-16T00:11:57.666Z,-1.24
2022-12-16T00:13:07.253Z,-1.24
2022-12-16T00:14:13.774Z,-1.21
2022-12-16T00:15:16.103Z,-1.21
2022-12-16T00:16:20.880Z,-1.21
2022-12-16T00:17:23.871Z,-1.19
2022-12-16T00:18:27.395Z,-1.19
2022-12-16T00:19:29.537Z,-1.19
2022-12-16T00:20:32.724Z,-1.19
2022-12-16T00:21:34.869Z,-1.17
2022-12-16T00:22:38.058Z,-1.19
2022-12-16T00:23:41.894Z,-1.19
2022-12-16T00:24:45.583Z,-1.17
2022-12-16T00:25:49.329Z,-1.18
2022-12-16T00:26:52.648Z,-1.17
2022-12-16T00:28:00.290Z,-1.17
2022-12-16T00:29:05.481Z,-1.15
2022-12-16T00:30:10.702Z,-1.16
2022-12-16T00:31:14.026Z,-1.16
2022-12-16T00:32:16.396Z,-1.16
2022-12-16T00:33:21.171Z,-1.16
2022-12-16T00:34:23.327Z,-1.15
2022-12-16T00:35:26.584Z,-1.16
2022-12-16T00:36:29.871Z,-1.16
2022-12-16T00:37:32.768Z,-1.17
2022-12-16T00:38:36.328Z,-1.20
2022-12-16T00:39:38.814Z,-1.17
2022-12-16T00:40:42.725Z,-1.18
2022-12-16T00:41:45.157Z,-1.19
2022-12-16T00:42:48.426Z,-1.19
2022-12-16T00:43:50.557Z,-1.20
2022-12-16T00:44:53.727Z,-1.19
2022-12-16T00:45:58.587Z,-1.17
2022-12-16T00:47:01.778Z,-1.16
2022-12-16T00:48:04.190Z,-1.16
2022-12-16T00:49:07.585Z,-1.14
2022-12-16T00:50:11.314Z,-1.14
2022-12-16T00:51:14.723Z,-1.13
2022-12-16T00:52:16.922Z,-1.11
2022-12-16T00:53:20.159Z,-1.11
2022-12-16T00:54:22.421Z,-1.10
2022-12-16T00:55:26.184Z,-1.11
2022-12-16T00:56:28.353Z,-1.11
2022-12-16T00:57:31.501Z,-1.10
2022-12-16T00:58:33.941Z,-1.11
2022-12-16T00:59:37.515Z,-1.10
2022-12-16T01:00:39.682Z,-1.09
2022-12-16T01:01:44.512Z,-1.09
2022-12-16T01:02:48.973Z,-1.08
2022-12-16T01:03:52.192Z,-1.07
2022-12-16T01:04:54.410Z,-1.07
2022-12-16T01:05:57.968Z,-1.07
2022-12-16T01:07:00.106Z,-1.09
2022-12-16T01:08:03.214Z,-1.08
2022-12-16T01:09:05.371Z,-1.09
2022-12-16T01:10:10.692Z,-1.11
2022-12-16T01:11:12.826Z,-1.11
2022-12-16T01:12:16.058Z,-1.12
2022-12-16T01:13:18.286Z,-1.16
2022-12-16T01:14:21.574Z,-1.14
2022-12-16T01:15:23.812Z,-1.16
2022-12-16T01:16:27.074Z,-1.16
2022-12-16T01:17:30.654Z,-1.17
2022-12-16T01:18:33.864Z,-1.19
2022-12-16T01:19:37.071Z,-1.21
2022-12-16T01:20:40.424Z,-1.20
2022-12-16T01:21:42.610Z,-1.19
2022-12-16T01:22:45.850Z,-1.17
2022-12-16T01:23:48.447Z,-1.21
2022-12-16T01:24:51.643Z,-1.15
2022-12-16T01:25:58.491Z,-1.17
2022-12-16T01:27:01.693Z,-1.14
2022-12-16T01:28:04.217Z,-1.14
2022-12-16T01:29:07.783Z,-1.13
2022-12-16T01:30:13.228Z,-1.12
2022-12-16T01:31:18.395Z,-1.12
2022-12-16T01:32:20.713Z,-1.11
2022-12-16T01:33:25.399Z,-1.09
2022-12-16T01:34:27.646Z,-1.10
2022-12-16T01:35:52.557Z,-1.08
2022-12-16T01:36:53.931Z,-1.08
2022-12-16T01:37:57.425Z,-1.07
2022-12-16T01:39:01.119Z,-1.08
2022-12-16T01:40:03.651Z,-1.08
2022-12-16T01:41:07.170Z,-1.09
2022-12-16T01:42:12.567Z,-1.09
2022-12-16T01:43:16.918Z,-1.19
2022-12-16T01:44:22.519Z,-1.11
2022-12-16T01:45:33.461Z,-1.11
2022-12-16T01:46:38.624Z,-1.11
2022-12-16T01:47:40.822Z,-1.12
2022-12-16T01:48:49.823Z,-1.11
2022-12-16T01:49:59.347Z,-1.12
2022-12-16T01:51:07.233Z,-1.11
2022-12-16T01:52:16.752Z,-1.12
2022-12-16T01:53:19.713Z,-1.13
2022-12-16T01:54:26.853Z,-1.13
2022-12-16T01:55:33.183Z,-1.13
2022-12-16T01:56:38.582Z,-1.15
2022-12-16T01:57:47.007Z,-1.16
2022-12-16T01:58:51.845Z,-1.17
2022-12-16T01:59:55.995Z,-1.17
2022-12-16T02:00:59.896Z,-1.19
2022-12-16T02:02:03.032Z,-1.19
2022-12-16T02:03:07.303Z,-1.19
2022-12-16T02:04:12.480Z,-1.19
2022-12-16T02:05:22.949Z,-1.23
2022-12-16T02:06:25.445Z,-1.19
2022-12-16T02:07:28.614Z,-1.20
2022-12-16T02:08:31.099Z,-1.20
2022-12-16T02:09:34.263Z,-1.21
2022-12-16T02:10:49.973Z,-1.22
2022-12-16T02:12:18.141Z,-1.24
2022-12-16T02:13:26.492Z,-1.26
2022-12-16T02:14:47.839Z,-1.23
2022-12-16T02:15:59.083Z,-1.24
2022-12-16T02:17:08.345Z,-1.24
2022-12-16T02:18:19.173Z,-1.24
2022-12-16T02:20:06.103Z,-1.25
2022-12-16T02:21:23.699Z,-1.26
2022-12-16T02:22:38.738Z,-1.27
2022-12-16T02:24:19.424Z,-1.30
2022-12-16T02:25:50.731Z,-1.31
2022-12-16T02:27:13.230Z,-1.33
2022-12-16T02:28:33.664Z,-1.33
2022-12-16T02:30:02.102Z,-1.35
2022-12-16T02:31:22.560Z,-1.35
2022-12-16T02:32:29.788Z,-1.37
2022-12-16T02:33:58.935Z,-1.39
2022-12-16T02:35:11.169Z,-1.41
2022-12-16T02:36:22.349Z,-1.42
2022-12-16T02:37:39.138Z,-1.44
2022-12-16T02:38:55.912Z,-1.44
2022-12-16T02:40:02.295Z,-1.46
2022-12-16T02:41:06.989Z,-1.47
2022-12-16T02:42:17.796Z,-1.47
2022-12-16T02:43:31.848Z,-1.48
2022-12-16T02:44:41.136Z,-1.49
2022-12-16T02:45:45.337Z,-1.51
2022-12-16T02:46:55.509Z,-1.53
2022-12-16T02:47:59.212Z,-1.54
2022-12-16T02:49:07.534Z,-1.55
2022-12-16T02:50:19.733Z,-1.56
2022-12-16T02:51:24.168Z,-1.57
2022-12-16T02:52:30.182Z,-1.59
2022-12-16T02:53:35.518Z,-1.60
2022-12-16T02:54:39.091Z,-1.63
2022-12-16T02:55:53.445Z,-1.63
2022-12-16T02:57:09.186Z,-1.65
2022-12-16T02:58:16.517Z,-1.68
2022-12-16T02:59:25.952Z,-1.69
2022-12-16T03:00:35.768Z,-1.71
2022-12-16T03:01:45.275Z,-1.73
2022-12-16T03:02:57.714Z,-1.74
2022-12-16T03:04:06.712Z,-1.77
2022-12-16T03:05:16.721Z,-1.77
2022-12-16T03:06:21.166Z,-1.80
2022-12-16T03:07:27.114Z,-1.82
2022-12-16T03:08:34.144Z,-1.85
2022-12-16T03:09:40.911Z,-1.87
2022-12-16T03:10:49.219Z,-1.90
2022-12-16T03:11:55.464Z,-1.92
2022-12-16T03:13:01.544Z,-1.95
2022-12-16T03:14:08.619Z,-1.98
2022-12-16T03:15:13.652Z,-2.00
2022-12-16T03:16:20.294Z,-2.03
2022-12-16T03:17:25.023Z,-2.05
2022-12-16T03:18:30.153Z,-2.08
2022-12-16T03:19:32.379Z,-2.10
2022-12-16T03:20:38.643Z,-2.12
2022-12-16T03:21:47.644Z,-2.16
2022-12-16T03:22:52.398Z,-2.18
2022-12-16T03:24:00.187Z,-2.19
2022-12-16T03:25:02.652Z,-2.21
2022-12-16T03:26:09.676Z,-2.26
2022-12-16T03:27:18.454Z,-2.27
2022-12-16T03:28:31.648Z,-2.32
2022-12-16T03:29:42.144Z,-2.33
2022-12-16T03:30:50.189Z,-2.36
2022-12-16T03:31:58.928Z,-2.38
2022-12-16T03:33:07.491Z,-2.40
2022-12-16T03:34:18.703Z,-2.43
2022-12-16T03:35:28.635Z,-2.46
2022-12-16T03:36:37.454Z,-2.48
2022-12-16T03:37:41.474Z,-2.51
2022-12-16T03:38:46.742Z,-2.53
2022-12-16T03:39:53.552Z,-2.56
2022-12-16T03:40:59.202Z,-2.59
2022-12-16T03:42:04.116Z,-2.59
2022-12-16T03:43:09.244Z,-2.61
2022-12-16T03:44:11.710Z,-2.63
2022-12-16T03:45:18.409Z,-2.65
2022-12-16T03:46:21.206Z,-2.67
2022-12-16T03:47:27.425Z,-2.69
2022-12-16T03:48:30.078Z,-2.72
2022-12-16T03:49:35.219Z,-2.77
2022-12-16T03:50:39.426Z,-2.79
2022-12-16T03:51:42.933Z,-2.79
2022-12-16T03:52:45.669Z,-2.82
2022-12-16T03:53:49.049Z,-2.88
2022-12-16T03:54:52.146Z,-2.87
2022-12-16T03:55:55.581Z,-2.89
2022-12-16T03:56:57.919Z,-2.90
2022-12-16T03:58:01.086Z,-2.94
2022-12-16T03:59:03.370Z,-2.99
2022-12-16T04:00:07.962Z,-2.98
2022-12-16T04:01:15.084Z,-3.00
2022-12-16T04:02:18.808Z,-3.02
2022-12-16T04:03:22.899Z,-3.05
2022-12-16T04:04:26.706Z,-3.08
2022-12-16T04:05:30.226Z,-3.09
2022-12-16T04:06:33.676Z,-3.11
2022-12-16T04:07:36.076Z,-3.13
2022-12-16T04:08:39.377Z,-3.15
2022-12-16T04:09:41.493Z,-3.16
2022-12-16T04:11:02.084Z,-3.17
2022-12-16T04:12:23.627Z,-3.21
2022-12-16T04:13:44.314Z,-3.23
2022-12-16T04:15:16.399Z,-3.26
2022-12-16T04:16:37.571Z,-3.29
2022-12-16T04:17:58.083Z,-3.30
2022-12-16T04:19:18.914Z,-3.34
2022-12-16T04:20:41.025Z,-3.35
2022-12-16T04:22:03.032Z,-3.37
2022-12-16T04:23:24.343Z,-3.40
2022-12-16T04:24:30.333Z,-3.40
2022-12-16T04:25:35.828Z,-3.42
2022-12-16T04:26:52.991Z,-3.43
2022-12-16T04:27:58.615Z,-3.45
2022-12-16T04:29:00.774Z,-3.45
2022-12-16T04:30:22.745Z,-3.48
2022-12-16T04:31:24.970Z,-3.49
2022-12-16T04:32:48.341Z,-3.50
2022-12-16T04:34:08.817Z,-3.51
2022-12-16T04:35:25.865Z,-3.53
2022-12-16T04:36:46.367Z,-3.55
2022-12-16T04:38:08.573Z,-3.54
2022-12-16T04:39:29.299Z,-3.56
2022-12-16T04:40:49.627Z,-3.56
2022-12-16T04:42:11.471Z,-3.57
2022-12-16T04:43:32.743Z,-3.56
2022-12-16T04:44:53.360Z,-3.57
2022-12-16T04:46:22.476Z,-3.59
2022-12-16T04:47:43.132Z,-3.64
2022-12-16T04:49:03.520Z,-3.60
2022-12-16T04:50:25.082Z,-3.62
2022-12-16T04:51:45.908Z,-3.62
2022-12-16T04:53:10.435Z,-3.62
2022-12-16T04:54:31.465Z,-3.64
2022-12-16T04:56:04.944Z,-3.65
2022-12-16T04:57:26.163Z,-3.66
2022-12-16T04:58:46.520Z,-3.67
2022-12-16T05:00:18.898Z,-3.66
2022-12-16T05:01:39.924Z,-3.66
2022-12-16T05:03:01.004Z,-3.67
2022-12-16T05:04:21.880Z,-3.67
2022-12-16T05:05:41.393Z,-3.67
2022-12-16T05:07:01.888Z,-3.67
2022-12-16T05:08:23.911Z,-3.68
2022-12-16T05:09:59.002Z,-3.66
2022-12-16T05:11:19.599Z,-3.67
2022-12-16T05:12:40.254Z,-3.64
2022-12-16T05:14:00.895Z,-3.63
2022-12-16T05:15:32.733Z,-3.63
2022-12-16T05:16:53.079Z,-3.62
2022-12-16T05:18:13.684Z,-3.63
2022-12-16T05:19:34.408Z,-3.62
2022-12-16T05:20:55.249Z,-3.63
2022-12-16T05:22:16.057Z,-3.63
2022-12-16T05:23:38.166Z,-3.64
2022-12-16T05:24:59.170Z,-3.63
2022-12-16T05:26:20.029Z,-3.62
2022-12-16T05:27:40.893Z,-3.62
2022-12-16T05:29:02.060Z,-3.60
2022-12-16T05:30:23.657Z,-3.59
2022-12-16T05:31:44.605Z,-3.56
2022-12-16T05:33:07.762Z,-3.57
2022-12-16T05:34:30.646Z,-3.55
2022-12-16T05:35:51.631Z,-3.55
2022-12-16T05:37:12.614Z,-3.53
2022-12-16T05:38:33.122Z,-3.53
2022-12-16T05:39:55.337Z,-3.52
2022-12-16T05:41:15.864Z,-3.49
2022-12-16T05:42:36.460Z,-3.49
2022-12-16T05:43:57.250Z,-3.47
2022-12-16T05:45:29.343Z,-3.46
2022-12-16T05:46:50.188Z,-3.46
2022-12-16T05:48:10.584Z,-3.45
2022-12-16T05:49:31.215Z,-3.45
2022-12-16T05:50:52.278Z,-3.44
2022-12-16T05:52:12.795Z,-3.43
2022-12-16T05:53:33.804Z,-3.41
2022-12-16T05:54:56.061Z,-3.41
2022-12-16T05:56:16.512Z,-3.37
2022-12-16T05:57:36.945Z,-3.37
2022-12-16T05:58:57.822Z,-3.35
2022-12-16T06:00:18.382Z,-3.35
2022-12-16T06:01:50.635Z,-3.34
2022-12-16T06:03:11.670Z,-3.32
2022-12-16T06:04:32.643Z,-3.32
2022-12-16T06:05:53.136Z,-3.32
2022-12-16T06:07:13.617Z,-3.32
2022-12-16T06:08:31.032Z,-3.33
2022-12-16T06:09:56.356Z,-3.33
2022-12-16T06:11:18.907Z,-3.33
2022-12-16T06:12:39.269Z,-3.34
2022-12-16T06:13:59.991Z,-3.36
2022-12-16T06:15:20.291Z,-3.38
2022-12-16T06:16:40.903Z,-3.41
2022-12-16T06:18:02.513Z,-3.58
2022-12-16T06:19:22.935Z,-3.46
2022-12-16T06:20:43.710Z,-3.48
2022-12-16T06:22:04.237Z,-3.51
2022-12-16T06:23:25.668Z,-3.52
2022-12-16T06:24:46.512Z,-3.54
2022-12-16T06:26:07.182Z,-3.55
2022-12-16T06:27:29.281Z,-3.57
2022-12-16T06:28:50.102Z,-3.56
2022-12-16T06:30:10.310Z,-3.56
2022-12-16T06:31:31.021Z,-3.55
2022-12-16T06:32:51.694Z,-3.77
2022-12-16T06:34:12.712Z,-3.51
2022-12-16T06:35:33.693Z,-3.49
2022-12-16T06:36:54.606Z,-3.47
2022-12-16T06:38:15.179Z,-3.47
2022-12-16T06:39:36.171Z,-3.46
2022-12-16T06:40:56.872Z,-3.45
2022-12-16T06:42:17.347Z,-3.43
2022-12-16T06:43:39.395Z,-3.42
2022-12-16T06:45:02.093Z,-3.43
2022-12-16T06:46:23.221Z,-3.40
2022-12-16T06:47:40.276Z,-3.40
2022-12-16T06:49:01.034Z,-3.40
2022-12-16T06:50:21.267Z,-3.38
2022-12-16T06:51:41.725Z,-3.36
2022-12-16T06:53:02.303Z,-3.50
2022-12-16T06:54:23.615Z,-3.34
2022-12-16T06:55:44.025Z,-3.34
2022-12-16T06:57:04.828Z,-3.33
2022-12-16T06:58:25.340Z,-3.33
2022-12-16T06:59:47.223Z,-3.33
2022-12-16T07:01:07.821Z,-3.31
2022-12-16T07:02:44.353Z,-3.31
2022-12-16T07:04:05.545Z,-3.30
2022-12-16T07:05:26.880Z,-3.28
2022-12-16T07:06:47.250Z,-3.29
2022-12-16T07:08:08.073Z,-3.29
2022-12-16T07:09:30.852Z,-3.26
2022-12-16T07:10:51.743Z,-3.26
2022-12-16T07:12:15.582Z,-3.26
2022-12-16T07:13:36.237Z,-3.25
2022-12-16T07:14:58.226Z,-3.26
2022-12-16T07:16:18.929Z,-3.27
2022-12-16T07:17:39.637Z,-3.27
2022-12-16T07:18:59.567Z,-3.28
2022-12-16T07:20:20.397Z,-3.29
2022-12-16T07:21:52.492Z,-3.27
2022-12-16T07:23:30.363Z,-3.27
2022-12-16T07:24:50.965Z,-3.25
2022-12-16T07:26:11.896Z,-3.27
2022-12-16T07:27:32.154Z,-3.26
2022-12-16T07:28:52.883Z,-3.25
2022-12-16T07:30:14.695Z,-3.24
2022-12-16T07:31:35.315Z,-3.23
2022-12-16T07:32:56.236Z,-3.24
2022-12-16T07:34:16.809Z,-3.25
2022-12-16T07:35:37.274Z,-3.25
2022-12-16T07:36:57.952Z,-3.26
2022-12-16T07:38:17.648Z,-3.31
2022-12-16T07:39:38.107Z,-3.27
2022-12-16T07:40:58.718Z,-3.28
2022-12-16T07:42:19.207Z,-3.28
2022-12-16T07:43:39.966Z,-3.33
2022-12-16T07:45:00.296Z,-3.28
2022-12-16T07:46:22.189Z,-3.27
2022-12-16T07:47:42.612Z,-3.24
2022-12-16T07:49:03.195Z,-3.24
2022-12-16T07:50:24.577Z,-3.23
2022-12-16T07:51:45.391Z,-3.20
2022-12-16T07:53:11.801Z,-3.18
2022-12-16T07:54:32.594Z,-3.16
2022-12-16T07:55:53.113Z,-3.14
2022-12-16T07:57:14.601Z,-3.12
2022-12-16T07:58:35.085Z,-3.08
2022-12-16T07:59:55.632Z,-3.06
2022-12-16T08:01:16.099Z,-3.02
2022-12-16T08:02:38.393Z,-2.99
2022-12-16T08:03:59.456Z,-2.97
2022-12-16T08:05:20.048Z,-2.92
2022-12-16T08:06:40.552Z,-2.90
2022-12-16T08:08:01.248Z,-2.87
2022-12-16T08:09:22.294Z,-2.83
2022-12-16T08:10:43.161Z,-2.79
2022-12-16T08:12:03.390Z,-2.74
2022-12-16T08:13:26.072Z,-2.69
2022-12-16T08:14:52.830Z,-2.65
2022-12-16T08:16:13.449Z,-2.61
2022-12-16T08:17:34.390Z,-2.58
2022-12-16T08:18:56.387Z,-2.54
2022-12-16T08:20:16.762Z,-2.57
2022-12-16T08:21:37.479Z,-2.47
2022-12-16T08:22:58.387Z,-2.44
2022-12-16T08:24:19.189Z,-2.39
2022-12-16T08:25:39.831Z,-2.35
2022-12-16T08:27:00.597Z,-2.47
2022-12-16T08:28:20.858Z,-2.28
2022-12-16T08:29:44.643Z,-2.24
2022-12-16T08:31:08.570Z,-2.21
2022-12-16T08:32:28.977Z,-2.17
2022-12-16T08:33:49.796Z,-2.15
2022-12-16T08:35:11.729Z,-2.12
2022-12-16T08:36:32.577Z,-2.08
2022-12-16T08:37:53.077Z,-2.05
2022-12-16T08:39:13.487Z,-2.05
2022-12-16T08:40:35.830Z,-2.01
2022-12-16T08:41:56.901Z,-2.00
2022-12-16T08:43:17.493Z,-2.03
2022-12-16T08:44:38.374Z,-1.99
2022-12-16T08:45:58.644Z,-2.00
2022-12-16T08:47:19.387Z,-2.00
2022-12-16T08:48:51.228Z,-2.00
2022-12-16T08:50:27.894Z,-1.98
2022-12-16T08:51:51.874Z,-1.97
2022-12-16T08:53:12.458Z,-1.96
2022-12-16T08:54:33.372Z,-1.94
2022-12-16T08:55:55.886Z,-1.91
2022-12-16T08:57:17.238Z,-1.87
2022-12-16T08:58:38.131Z,-1.84
2022-12-16T08:59:58.595Z,-1.83
2022-12-16T09:01:27.755Z,-1.82
2022-12-16T09:02:48.880Z,-1.81
2022-12-16T09:04:09.625Z,-1.79
2022-12-16T09:05:31.722Z,-1.80
2022-12-16T09:06:52.412Z,-1.80
2022-12-16T09:08:17.499Z,-1.80
2022-12-16T09:09:38.338Z,-1.80
2022-12-16T09:10:58.426Z,-1.78
2022-12-16T09:12:19.031Z,-1.79
2022-12-16T09:13:40.035Z,-1.79
2022-12-16T09:15:00.887Z,-1.78
2022-12-16T09:16:21.575Z,-1.76
2022-12-16T09:17:42.307Z,-1.75
2022-12-16T09:19:03.087Z,-1.73
2022-12-16T09:20:23.728Z,-1.72
2022-12-16T09:21:46.011Z,-1.76
2022-12-16T09:23:06.764Z,-1.72
2022-12-16T09:24:27.718Z,-1.71
2022-12-16T09:25:48.304Z,-1.69
2022-12-16T09:27:08.716Z,-1.73
2022-12-16T09:28:29.425Z,-1.65
2022-12-16T09:29:50.064Z,-1.64
2022-12-16T09:31:10.616Z,-1.62
2022-12-16T09:32:31.419Z,-1.61
2022-12-16T09:33:54.237Z,-1.61
2022-12-16T09:35:14.832Z,-1.60
2022-12-16T09:36:36.239Z,-1.58
2022-12-16T09:38:04.458Z,-1.57
2022-12-16T09:39:25.161Z,-1.55
2022-12-16T09:40:45.805Z,-1.53
2022-12-16T09:42:20.744Z,-1.49
2022-12-16T09:44:05.845Z,-1.49
2022-12-16T09:45:33.272Z,-1.48
2022-12-16T09:47:08.242Z,-1.48
2022-12-16T09:48:34.218Z,-1.47
2022-12-16T09:50:06.021Z,-1.43
2022-12-16T09:51:28.248Z,-1.41
2022-12-16T09:52:52.356Z,-1.40
2022-12-16T09:54:16.028Z,-1.44
2022-12-16T09:55:44.112Z,-1.36
2022-12-16T09:57:06.273Z,-1.39
2022-12-16T09:58:29.369Z,-1.32
2022-12-16T09:59:54.415Z,-1.31
2022-12-16T10:01:16.312Z,-1.41
2022-12-16T10:02:38.774Z,-1.26
2022-12-16T10:03:59.716Z,-1.23
2022-12-16T10:05:20.213Z,-1.22
2022-12-16T10:06:55.971Z,-1.19
2022-12-16T10:08:29.196Z,-1.16
2022-12-16T10:10:10.502Z,-1.11
2022-12-16T10:11:41.291Z,-1.09
2022-12-16T10:13:10.313Z,-1.10
2022-12-16T10:14:37.404Z,-1.11
2022-12-16T10:16:04.221Z,-1.13
2022-12-16T10:17:31.711Z,-1.13
2022-12-16T10:19:05.382Z,-1.14
2022-12-16T10:20:34.803Z,-1.14
2022-12-16T10:22:04.412Z,-1.15
2022-12-16T10:23:38.769Z,-1.22
2022-12-16T10:25:12.567Z,-1.10
2022-12-16T10:26:38.765Z,-1.08
2022-12-16T10:28:03.824Z,-1.04
2022-12-16T10:29:31.570Z,-1.01
2022-12-16T10:31:07.197Z,-1.01
2022-12-16T10:32:34.360Z,-1.06
2022-12-16T10:33:55.148Z,-1.01
2022-12-16T10:35:16.882Z,-0.97
2022-12-16T10:36:41.440Z,-0.96
2022-12-16T10:38:16.687Z,-0.96
2022-12-16T10:39:46.288Z,-0.94
2022-12-16T10:41:09.082Z,-0.93
2022-12-16T10:42:36.156Z,-0.92
2022-12-16T10:44:01.477Z,-0.91
2022-12-16T10:45:23.335Z,-0.92
2022-12-16T10:46:48.334Z,-0.93
2022-12-16T10:48:09.374Z,-0.93
2022-12-16T10:49:32.236Z,-0.93
2022-12-16T10:50:52.932Z,-0.98
2022-12-16T10:52:14.223Z,-0.91
2022-12-16T10:53:46.407Z,-0.90
2022-12-16T10:55:16.509Z,-0.90
2022-12-16T10:57:00.674Z,-0.90
2022-12-16T10:58:34.211Z,-0.90
2022-12-16T10:59:59.299Z,-0.89
2022-12-16T11:01:20.060Z,-0.88
2022-12-16T11:02:43.530Z,-0.87
2022-12-16T11:04:04.378Z,-0.85
2022-12-16T11:05:47.501Z,-0.85
2022-12-16T11:07:08.467Z,-0.83
2022-12-16T11:08:43.354Z,-0.83
2022-12-16T11:10:03.942Z,-0.82
2022-12-16T11:11:32.480Z,-0.82
2022-12-16T11:12:55.084Z,-0.81
2022-12-16T11:14:32.456Z,-0.80
2022-12-16T11:15:53.028Z,-0.79
2022-12-16T11:17:31.542Z,-0.80
2022-12-16T11:18:52.060Z,-0.74
2022-12-16T11:20:26.312Z,-0.71
2022-12-16T11:21:46.903Z,-0.70
2022-12-16T11:23:25.194Z,-0.67
2022-12-16T11:24:47.021Z,-0.67
2022-12-16T11:26:22.808Z,-0.66
2022-12-16T11:27:44.941Z,-0.65
2022-12-16T11:29:21.217Z,-0.65
2022-12-16T11:30:42.436Z,-0.64
2022-12-16T11:32:03.315Z,-0.63
2022-12-16T11:33:28.976Z,-0.60
2022-12-16T11:34:51.101Z,-0.58
2022-12-16T11:36:23.582Z,-0.57
2022-12-16T11:37:47.689Z,-0.56
2022-12-16T11:39:10.651Z,-0.54
2022-12-16T11:40:35.176Z,-0.55
2022-12-16T11:41:58.662Z,-0.54
2022-12-16T11:43:22.069Z,-0.53
2022-12-16T11:44:48.835Z,-0.52
2022-12-16T11:46:11.420Z,-0.50
2022-12-16T11:47:40.459Z,-0.57
2022-12-16T11:49:06.214Z,-0.50
2022-12-16T11:50:34.533Z,-0.43
2022-12-16T11:52:20.820Z,-0.48
2022-12-16T11:53:49.014Z,-0.34
2022-12-16T11:55:18.071Z,-0.32
2022-12-16T11:56:43.169Z,-0.30
2022-12-16T11:58:10.716Z,-0.29
2022-12-16T11:59:42.406Z,-0.24
2022-12-16T12:01:16.118Z,-0.21
2022-12-16T12:02:42.837Z,-0.17
2022-12-16T12:04:05.494Z,-0.20
2022-12-16T12:05:30.953Z,-0.16
2022-12-16T12:07:05.654Z,-0.17
2022-12-16T12:08:35.091Z,-0.19
2022-12-16T12:10:07.612Z,-0.19
2022-12-16T12:11:39.192Z,-0.21
2022-12-16T12:13:07.589Z,-0.20
2022-12-16T12:14:33.887Z,-0.25
2022-12-16T12:16:01.936Z,-0.17
2022-12-16T12:17:39.018Z,-0.16
2022-12-16T12:19:07.954Z,-0.15
2022-12-16T12:20:53.141Z,-0.14
2022-12-16T12:22:16.906Z,-0.12
2022-12-16T12:23:46.311Z,-0.12
2022-12-16T12:25:27.071Z,-0.13
2022-12-16T12:26:50.827Z,-0.11
2022-12-16T12:28:20.411Z,-0.09
2022-12-16T12:29:49.967Z,-0.07
2022-12-16T12:31:19.081Z,-0.06
2022-12-16T12:32:51.253Z,-0.05
2022-12-16T12:34:22.497Z,-0.04
2022-12-16T12:36:01.110Z,-0.04
2022-12-16T12:37:29.291Z,-0.03
2022-12-16T12:38:58.797Z,-0.02
2022-12-16T12:40:31.896Z,-0.04
2022-12-16T12:42:08.683Z,0.02
2022-12-16T12:43:43.456Z,0.04
2022-12-16T12:45:16.852Z,0.08
2022-12-16T12:46:42.993Z,0.11
2022-12-16T12:48:13.861Z,0.11
2022-12-16T12:49:44.445Z,0.09
2022-12-16T12:51:10.981Z,0.09
2022-12-16T12:52:41.926Z,0.10
2022-12-16T12:54:09.702Z,0.12
2022-12-16T12:55:38.747Z,0.15
2022-12-16T12:57:07.658Z,0.19
2022-12-16T12:58:31.294Z,0.21
2022-12-16T13:00:04.850Z,0.23
2022-12-16T13:01:27.115Z,0.28
2022-12-16T13:02:54.703Z,0.30
2022-12-16T13:04:22.030Z,0.29
2022-12-16T13:05:46.169Z,0.25
2022-12-16T13:07:08.068Z,0.15
2022-12-16T13:09:05.592Z,0.13
2022-12-16T13:10:33.159Z,0.07
2022-12-16T13:11:55.045Z,0.00
2022-12-16T13:13:48.880Z,-0.03
2022-12-16T13:15:20.999Z,-0.07
2022-12-16T13:17:25.929Z,-0.12
2022-12-16T13:18:47.791Z,-0.20
2022-12-16T13:20:16.539Z,-0.23
2022-12-16T13:22:02.208Z,-0.28
2022-12-16T13:23:47.568Z,-0.33
2022-12-16T13:25:09.532Z,-0.38
2022-12-16T13:26:31.813Z,-0.44
2022-12-16T13:28:09.324Z,-0.49
2022-12-16T13:29:38.300Z,-0.53
2022-12-16T13:31:20.060Z,-0.59
2022-12-16T13:32:44.657Z,-0.65
2022-12-16T13:34:10.581Z,-0.69
2022-12-16T13:35:36.916Z,-0.74
2022-12-16T13:36:59.301Z,-0.76
2022-12-16T13:38:22.855Z,-0.80
2022-12-16T13:39:45.849Z,-0.83
2022-12-16T13:41:11.026Z,-0.85
2022-12-16T13:43:08.281Z,-0.88
2022-12-16T13:44:29.124Z,-0.91
2022-12-16T13:45:51.896Z,-0.93
2022-12-16T13:47:14.782Z,-0.93
2022-12-16T13:48:57.831Z,-0.93
2022-12-16T13:50:29.998Z,-0.94
2022-12-16T13:52:18.228Z,-0.93
2022-12-16T13:53:41.027Z,-0.93
2022-12-16T13:55:07.499Z,-0.94
2022-12-16T13:56:34.891Z,-0.93
2022-12-16T13:57:59.868Z,-0.92
2022-12-16T13:59:25.425Z,-0.94
2022-12-16T14:00:47.793Z,-0.97
2022-12-16T14:02:12.152Z,-0.97
2022-12-16T14:03:38.569Z,-0.99
2022-12-16T14:05:04.313Z,-0.99
2022-12-16T14:06:31.945Z,-1.01
2022-12-16T14:07:57.620Z,-1.01
2022-12-16T14:09:22.702Z,-0.99
2022-12-16T14:10:46.082Z,-1.02
2022-12-16T14:12:13.406Z,-1.00
2022-12-16T14:13:53.886Z,-1.02
2022-12-16T14:15:22.775Z,-1.01
2022-12-16T14:16:54.334Z,-1.01
2022-12-16T14:18:23.239Z,-1.04
2022-12-16T14:19:52.343Z,-1.06
2022-12-16T14:21:17.644Z,-1.07
2022-12-16T14:22:49.276Z,-1.09
2022-12-16T14:24:16.371Z,-1.10
2022-12-16T14:25:39.785Z,-1.12
2022-12-16T14:27:01.519Z,-1.13
2022-12-16T14:28:26.935Z,-1.15
2022-12-16T14:29:49.999Z,-1.21
2022-12-16T14:31:21.930Z,-1.25
2022-12-16T14:32:47.841Z,-1.20
2022-12-16T14:34:11.641Z,-1.23
2022-12-16T14:35:34.089Z,-1.24
2022-12-16T14:36:57.695Z,-1.26
2022-12-16T14:38:53.436Z,-1.31
2022-12-16T14:40:29.948Z,-1.33
2022-12-16T14:41:50.804Z,-1.36
2022-12-16T14:43:13.252Z,-1.36
2022-12-16T14:44:36.696Z,-1.40
2022-12-16T14:45:58.036Z,-1.43
2022-12-16T14:47:18.811Z,-1.45
2022-12-16T14:48:49.920Z,-1.48
2022-12-16T14:50:13.192Z,-1.51
2022-12-16T14:51:44.355Z,-1.53
2022-12-16T14:53:04.907Z,-1.56
2022-12-16T14:54:44.631Z,-1.59
2022-12-16T14:56:06.555Z,-1.60
2022-12-16T14:57:33.230Z,-1.64
2022-12-16T14:58:54.053Z,-1.64
2022-12-16T15:00:22.812Z,-1.65
2022-12-16T15:01:45.616Z,-1.70
2022-12-16T15:03:11.495Z,-1.71
2022-12-16T15:04:36.435Z,-1.74
2022-12-16T15:05:58.213Z,-1.75
2022-12-16T15:07:20.543Z,-1.79
2022-12-16T15:08:42.408Z,-1.80
2022-12-16T15:10:06.060Z,-1.80
2022-12-16T15:11:31.728Z,-1.83
2022-12-16T15:12:56.920Z,-1.82
2022-12-16T15:14:35.870Z,-1.81
2022-12-16T15:16:02.809Z,-1.81
2022-12-16T15:17:24.966Z,-1.81
2022-12-16T15:18:52.214Z,-1.81
2022-12-16T15:20:13.427Z,-1.80
2022-12-16T15:21:34.063Z,-1.81
2022-12-16T15:22:55.464Z,-1.80
2022-12-16T15:24:19.449Z,-1.79
2022-12-16T15:25:46.671Z,-1.79
2022-12-16T15:27:08.640Z,-1.77
2022-12-16T15:28:43.614Z,-1.75
2022-12-16T15:30:04.772Z,-1.73
2022-12-16T15:31:36.648Z,-1.72
2022-12-16T15:33:00.730Z,-1.70
2022-12-16T15:34:40.844Z,-1.68
2022-12-16T15:36:02.550Z,-1.67
2022-12-16T15:37:32.896Z,-1.67
2022-12-16T15:38:55.248Z,-1.64
2022-12-16T15:40:16.061Z,-1.64
2022-12-16T15:41:42.108Z,-1.64
2022-12-16T15:43:09.844Z,-1.63
2022-12-16T15:44:35.669Z,-1.61
2022-12-16T15:45:56.326Z,-1.60
2022-12-16T15:47:17.076Z,-1.58
2022-12-16T15:48:40.068Z,-1.58
2022-12-16T15:50:06.998Z,-1.57
2022-12-16T15:51:40.953Z,-1.56
2022-12-16T15:53:02.510Z,-1.56
2022-12-16T15:54:25.972Z,-1.57
2022-12-16T15:55:50.239Z,-1.58
2022-12-16T15:57:10.712Z,-1.60
2022-12-16T15:58:37.234Z,-1.62
2022-12-16T16:00:14.079Z,-1.63
2022-12-16T16:01:38.068Z,-1.66
2022-12-16T16:03:05.857Z,-1.66
2022-12-16T16:04:40.644Z,-1.69
2022-12-16T16:06:01.602Z,-1.71
2022-12-16T16:07:22.735Z,-1.74
2022-12-16T16:08:43.408Z,-1.74
2022-12-16T16:10:04.712Z,-1.75
2022-12-16T16:11:26.604Z,-1.78
2022-12-16T16:12:47.506Z,-1.79
2022-12-16T16:14:14.366Z,-1.80
2022-12-16T16:15:36.014Z,-1.83
2022-12-16T16:16:56.945Z,-1.85
2022-12-16T16:18:19.456Z,-1.87
2022-12-16T16:19:43.085Z,-1.90
2022-12-16T16:21:04.538Z,-1.91
2022-12-16T16:22:29.927Z,-1.95
2022-12-16T16:23:50.951Z,-1.95
2022-12-16T16:25:11.539Z,-1.96
2022-12-16T16:26:34.825Z,-1.99
2022-12-16T16:27:55.730Z,-2.03
2022-12-16T16:29:17.830Z,-2.04
2022-12-16T16:30:39.938Z,-2.06
2022-12-16T16:32:04.095Z,-2.07
2022-12-16T16:33:25.746Z,-2.08
2022-12-16T16:34:47.062Z,-2.06
2022-12-16T16:36:03.904Z,-2.07
2022-12-16T16:37:31.836Z,-2.07
2022-12-16T16:38:53.019Z,-2.06
2022-12-16T16:40:13.563Z,-2.05
2022-12-16T16:41:34.958Z,-2.02
2022-12-16T16:42:55.555Z,-2.03
2022-12-16T16:44:19.736Z,-2.00
2022-12-16T16:45:40.945Z,-1.98
2022-12-16T16:47:02.036Z,-1.97
2022-12-16T16:48:27.998Z,-2.00
2022-12-16T16:49:50.490Z,-1.95
2022-12-16T16:51:14.597Z,-1.92
2022-12-16T16:52:38.016Z,-1.90
2022-12-16T16:53:58.780Z,-1.89
2022-12-16T16:55:19.768Z,-1.88
2022-12-16T16:56:40.162Z,-1.85
2022-12-16T16:58:00.926Z,-1.84
2022-12-16T16:59:23.575Z,-1.81
2022-12-16T17:00:44.426Z,-1.81
2022-12-16T17:02:05.041Z,-1.80
2022-12-16T17:03:26.480Z,-1.79